Time;durP1;ratioP1;P1;durP2;ratioP2;P2;SDS_P1;SDS_P2;PMS_P1;PMS_P2;Temp;Humidity;BMP_temperature;BMP_pressure;BME280_temperature;BME280_humidity;BME280_pressure;Samples;Min_cycle;Max_cycle;Signal;HPM_P1;HPM_P2
2023/01/11 00:01:41;;;;;;;8.70;6.03;;;-2.20;99.90;;;;;;5031748;28;20156;-51
2023/01/11 00:04:07;;;;;;;14.27;6.57;;;-2.20;99.90;;;;;;5030431;28;20040;-50
2023/01/11 00:06:32;;;;;;;10.32;7.07;;;-2.20;99.90;;;;;;5031921;28;20014;-50
2023/01/11 00:08:58;;;;;;;8.95;5.72;;;-2.20;99.90;;;;;;5031742;28;20105;-54
2023/01/11 00:11:24;;;;;;;16.88;6.35;;;-2.30;99.90;;;;;;5031773;28;20037;-51
2023/01/11 00:13:49;;;;;;;10.18;6.45;;;-2.30;99.90;;;;;;5031764;28;20635;-51
2023/01/11 00:16:16;;;;;;;10.68;6.63;;;-2.30;99.90;;;;;;5031765;28;20496;-50
2023/01/11 00:18:42;;;;;;;10.75;5.97;;;-2.30;99.90;;;;;;5031752;28;20108;-51
2023/01/11 00:21:08;;;;;;;11.88;7.07;;;-2.40;99.90;;;;;;5031595;28;20083;-50
2023/01/11 00:23:35;;;;;;;13.20;6.10;;;-2.40;99.90;;;;;;5031563;28;20029;-52
2023/01/11 00:26:05;;;;;;;9.98;6.03;;;-2.40;99.90;;;;;;5031647;28;20057;-50
2023/01/11 00:28:31;;;;;;;9.00;6.65;;;-2.40;99.90;;;;;;5031495;28;20021;-53
2023/01/11 00:30:57;;;;;;;8.23;5.63;;;-2.40;99.90;;;;;;5031676;28;20028;-49
2023/01/11 00:33:23;;;;;;;18.45;6.60;;;-2.40;99.90;;;;;;5031621;28;20026;-51
2023/01/11 00:35:52;;;;;;;9.45;6.03;;;-2.40;99.90;;;;;;5031489;28;20419;-52
2023/01/11 00:47:55;;;;;;;7.10;5.80;;;-2.40;99.90;;;;;;5035508;28;20379;-49
2023/01/11 00:49:19;;;;;;;11.00;5.63;;;-2.50;99.90;;;;;;5035389;28;20079;-51
2023/01/11 00:51:45;;;;;;;9.75;7.57;;;-2.50;99.90;;;;;;5035148;28;20025;-52
2023/01/11 00:54:11;;;;;;;8.23;5.68;;;-2.50;99.90;;;;;;5035134;28;20052;-50
2023/01/11 00:56:36;;;;;;;8.00;5.70;;;-2.60;99.90;;;;;;5034958;28;20068;-50
2023/01/11 00:59:03;;;;;;;6.57;5.63;;;-2.50;99.90;;;;;;5034884;28;20104;-50
2023/01/11 01:01:29;;;;;;;7.07;5.70;;;-2.70;99.90;;;;;;5034982;28;20027;-55
2023/01/11 01:03:55;;;;;;;8.38;5.80;;;-2.60;99.90;;;;;;5033479;28;20033;-50
2023/01/11 01:06:21;;;;;;;12.20;6.30;;;-2.60;99.90;;;;;;5034880;28;20029;-50
2023/01/11 01:08:47;;;;;;;16.92;6.30;;;-2.70;99.90;;;;;;5034825;28;20385;-52
2023/01/11 01:11:12;;;;;;;16.27;5.75;;;-2.70;99.90;;;;;;5034659;28;20033;-49
2023/01/11 01:16:22;;;;;;;8.82;6.03;;;-2.70;99.90;;;;;;5034560;28;20032;-50
2023/01/11 01:18:48;;;;;;;10.57;6.68;;;-2.70;99.90;;;;;;5033296;28;20025;-51
2023/01/11 01:21:14;;;;;;;11.57;6.68;;;-2.70;99.90;;;;;;5034340;28;20075;-53
2023/01/11 01:23:39;;;;;;;10.00;7.05;;;-2.70;99.90;;;;;;5034313;28;20108;-51
2023/01/11 01:26:05;;;;;;;10.65;6.57;;;-2.70;99.90;;;;;;5034420;28;20539;-53
2023/01/11 01:28:31;;;;;;;11.13;7.53;;;-2.70;99.90;;;;;;5034351;28;20064;-50
2023/01/11 01:30:57;;;;;;;11.50;7.00;;;-2.70;99.90;;;;;;5034428;28;20029;-51
2023/01/11 01:33:23;;;;;;;10.55;6.18;;;-2.70;99.90;;;;;;5034366;28;20044;-49
2023/01/11 01:35:49;;;;;;;11.98;7.40;;;-2.70;99.90;;;;;;5034347;28;20026;-50
2023/01/11 01:38:15;;;;;;;9.02;6.53;;;-2.70;99.90;;;;;;5034148;28;20029;-49
2023/01/11 01:40:46;;;;;;;8.07;6.20;;;-2.60;99.90;;;;;;5034323;28;20029;-49
2023/01/11 01:43:14;;;;;;;9.00;6.05;;;-2.60;99.90;;;;;;5034162;28;20029;-51
2023/01/11 01:45:40;;;;;;;10.07;5.88;;;-2.60;99.90;;;;;;5032616;28;20052;-51
2023/01/11 01:48:09;;;;;;;8.45;6.78;;;-2.50;99.90;;;;;;5032835;28;20048;-54
2023/01/11 01:50:47;;;;;;;12.02;5.55;;;-2.50;99.90;;;;;;5034087;28;20452;-50
2023/01/11 01:53:25;;;;;;;10.68;6.32;;;-2.40;99.90;;;;;;5034010;28;20102;-49
2023/01/11 01:55:54;;;;;;;10.48;6.57;;;-2.30;99.90;;;;;;5033849;28;20032;-53
2023/01/11 01:58:26;;;;;;;12.60;5.80;;;-2.30;99.90;;;;;;5033860;28;20054;-52
2023/01/11 02:00:52;;;;;;;8.77;6.80;;;-2.20;99.90;;;;;;5033767;28;20017;-51
2023/01/11 02:03:22;;;;;;;9.85;6.40;;;-2.20;99.90;;;;;;5033646;28;20020;-50
2023/01/11 02:05:50;;;;;;;8.77;5.93;;;-2.10;99.90;;;;;;5033817;28;20033;-51
2023/01/11 02:08:31;;;;;;;8.52;6.80;;;-2.00;99.90;;;;;;5033732;28;20032;-49
2023/01/11 02:10:58;;;;;;;10.70;6.30;;;-1.90;99.90;;;;;;5033587;28;20049;-49
2023/01/11 02:13:24;;;;;;;9.43;6.82;;;-1.80;99.90;;;;;;5033580;28;20021;-54
2023/01/11 02:16:06;;;;;;;12.23;6.28;;;-1.80;99.90;;;;;;5033561;28;20108;-52
2023/01/11 02:18:33;;;;;;;9.80;6.30;;;-1.70;99.90;;;;;;5033605;28;20648;-51
2023/01/11 02:21:40;;;;;;;9.93;6.80;;;-1.70;99.90;;;;;;5033520;28;20021;-52
2023/01/11 02:24:27;;;;;;;9.13;6.50;;;-1.60;99.90;;;;;;5032517;28;20030;-52
2023/01/11 02:27:24;;;;;;;8.77;5.82;;;-1.60;99.90;;;;;;5033334;28;20025;-53
2023/01/11 02:30:12;;;;;;;8.50;6.40;;;-1.50;99.90;;;;;;5033300;28;20061;-53
2023/01/11 02:32:53;;;;;;;9.38;6.18;;;-1.50;99.90;;;;;;5033227;28;20096;-54
2023/01/11 02:35:22;;;;;;;12.23;6.35;;;-1.50;99.90;;;;;;5033129;28;20376;-53
2023/01/11 02:38:00;;;;;;;10.00;7.15;;;-1.40;99.90;;;;;;5033204;28;20087;-52
2023/01/11 02:40:55;;;;;;;10.80;6.25;;;-1.30;99.90;;;;;;5032952;28;20037;-54
2023/01/11 02:46:29;;;;;;;15.80;6.32;;;-1.30;99.90;;;;;;5032922;28;20067;-51
2023/01/11 02:49:31;;;;;;;13.27;7.05;;;-1.20;99.90;;;;;;5033003;28;20024;-55
2023/01/11 02:52:25;;;;;;;8.75;6.13;;;-1.20;99.90;;;;;;5032864;28;20026;-52
2023/01/11 02:54:54;;;;;;;;;;;-1.10;99.90;;;;;;5032823;28;20037;-52
2023/01/11 02:57:23;;;;;;;8.57;5.85;;;-1.10;99.90;;;;;;5032763;28;19963;-55
2023/01/11 02:59:50;;;;;;;9.50;6.40;;;-1.00;99.90;;;;;;5032397;28;20021;-56
2023/01/11 03:02:16;;;;;;;11.32;6.70;;;-0.90;99.90;;;;;;5032694;28;20017;-52
2023/01/11 03:04:42;;;;;;;8.48;6.07;;;-0.90;99.90;;;;;;5032584;28;20029;-54
2023/01/11 03:07:35;;;;;;;7.43;6.07;;;-0.80;99.90;;;;;;5032539;28;20036;-55
2023/01/11 03:10:20;;;;;;;12.13;5.47;;;-0.80;99.90;;;;;;5032516;28;20021;-50
2023/01/11 03:13:08;;;;;;;9.80;5.78;;;-0.60;99.90;;;;;;5032557;28;20352;-53
2023/01/11 03:16:29;;;;;;;10.70;5.72;;;-0.50;99.90;;;;;;5012141;28;20037;-50
2023/01/11 03:19:36;;;;;;;14.65;6.75;;;-0.40;99.90;;;;;;4989898;28;20451;-53
2023/01/11 03:22:15;;;;;;;9.38;8.23;;;-0.40;99.90;;;;;;5016192;28;20029;-52
2023/01/11 03:25:02;;;;;;;14.75;5.90;;;-0.40;99.90;;;;;;5032277;28;20469;-51
2023/01/11 03:27:36;;;;;;;10.68;6.43;;;-0.30;99.90;;;;;;5032243;28;20053;-53
2023/01/11 03:30:27;;;;;;;7.15;5.75;;;-0.40;99.90;;;;;;5032143;28;20025;-52
2023/01/11 03:33:01;;;;;;;8.68;5.40;;;-0.40;99.90;;;;;;5032208;28;20461;-54
2023/01/11 03:35:38;;;;;;;7.72;6.75;;;-0.30;99.90;;;;;;5032122;28;20040;-53
2023/01/11 03:38:27;;;;;;;10.73;5.18;;;-0.30;99.90;;;;;;5032121;28;20026;-53
2023/01/11 03:40:56;;;;;;;9.93;5.97;;;-0.30;99.90;;;;;;5032065;28;20088;-51
2023/01/11 03:43:24;;;;;;;7.25;5.68;;;-0.20;99.90;;;;;;5032192;28;20481;-52
2023/01/11 03:46:05;;;;;;;14.77;5.30;;;-0.20;99.90;;;;;;5031909;28;20080;-52
2023/01/11 03:48:40;;;;;;;7.70;4.97;;;-0.10;99.90;;;;;;5032068;28;20424;-54
2023/01/11 03:51:11;;;;;;;10.57;7.05;;;0.00;99.90;;;;;;5031954;28;20029;-52
2023/01/11 03:53:38;;;;;;;13.82;5.05;;;0.00;99.90;;;;;;5031836;28;20033;-52
2023/01/11 03:56:09;;;;;;;7.63;5.40;;;0.10;99.90;;;;;;5031997;28;20030;-49
2023/01/11 03:58:35;;;;;;;23.13;17.55;;;0.10;99.90;;;;;;5031965;28;20068;-50
2023/01/11 04:01:02;;;;;;;11.98;7.85;;;0.10;99.90;;;;;;5031947;28;20040;-50
2023/01/11 04:03:28;;;;;;;12.80;7.35;;;0.10;99.90;;;;;;5031810;28;20032;-52
2023/01/11 04:05:58;;;;;;;11.32;6.63;;;0.20;99.90;;;;;;5031791;28;20018;-51
2023/01/11 04:08:24;;;;;;;11.82;9.95;;;0.20;99.90;;;;;;5030393;28;20026;-52
2023/01/11 04:10:49;;;;;;;14.45;10.50;;;0.20;99.90;;;;;;5031780;28;20487;-51
2023/01/11 04:13:15;;;;;;;18.27;11.35;;;0.20;99.90;;;;;;5035786;28;20018;-50
2023/01/11 04:15:41;;;;;;;15.35;10.15;;;0.30;99.90;;;;;;5035809;28;20041;-51
2023/01/11 04:18:06;;;;;;;13.45;9.52;;;0.40;99.90;;;;;;5035818;28;20017;-52
2023/01/11 04:20:34;;;;;;;12.65;9.38;;;0.30;99.90;;;;;;5035661;28;20084;-51
2023/01/11 04:23:00;;;;;;;8.27;4.90;;;0.40;99.90;;;;;;5035561;28;20121;-51
2023/01/11 04:25:26;;;;;;;9.68;5.60;;;0.50;99.90;;;;;;5035585;28;20458;-50
2023/01/11 04:27:51;;;;;;;6.88;5.07;;;0.60;99.90;;;;;;5035570;28;20029;-51
2023/01/11 04:30:17;;;;;;;10.77;5.10;;;0.60;99.90;;;;;;5035490;28;20049;-55
2023/01/11 04:32:43;;;;;;;7.47;6.53;;;0.60;99.90;;;;;;5035550;28;20036;-50
2023/01/11 04:35:08;;;;;;;19.50;8.43;;;0.50;99.90;;;;;;5035384;28;20224;-55
2023/01/11 04:37:34;;;;;;;22.65;8.57;;;0.50;99.90;;;;;;5035470;28;20025;-53
2023/01/11 04:40:00;;;;;;;16.08;7.57;;;0.50;99.90;;;;;;5035370;28;20029;-52
2023/01/11 04:42:25;;;;;;;12.05;7.68;;;0.50;99.90;;;;;;5035385;28;20064;-51
2023/01/11 04:44:51;;;;;;;9.60;6.68;;;0.50;99.90;;;;;;5033828;28;20511;-51
2023/01/11 04:47:20;;;;;;;14.07;6.82;;;0.50;99.90;;;;;;5035125;28;20112;-53
2023/01/11 04:49:46;;;;;;;12.05;5.70;;;0.50;99.90;;;;;;5035102;28;20027;-54
2023/01/11 04:52:13;;;;;;;10.40;5.55;;;0.50;99.90;;;;;;5033818;28;20048;-51
2023/01/11 04:54:39;;;;;;;10.90;6.32;;;0.40;99.90;;;;;;5034938;28;20059;-55
2023/01/11 04:57:06;;;;;;;8.65;5.55;;;0.50;99.90;;;;;;5035097;28;20116;-49
2023/01/11 04:59:32;;;;;;;11.60;5.82;;;0.50;99.90;;;;;;5034980;28;20034;-50
2023/01/11 05:01:57;;;;;;;7.80;4.88;;;0.70;99.90;;;;;;5034878;28;20029;-51
2023/01/11 05:04:23;;;;;;;10.85;5.07;;;0.80;99.90;;;;;;5034567;28;20061;-53
2023/01/11 05:06:49;;;;;;;7.90;5.03;;;0.90;99.90;;;;;;5034731;28;20420;-50
2023/01/11 05:09:16;;;;;;;12.40;4.97;;;0.80;99.90;;;;;;5034811;28;20029;-57
2023/01/11 05:11:43;;;;;;;5.20;4.72;;;0.80;99.90;;;;;;5033483;28;20047;-52
2023/01/11 05:14:08;;;;;;;9.98;5.43;;;0.80;99.90;;;;;;5034721;28;20450;-50
2023/01/11 05:16:34;;;;;;;11.10;5.60;;;0.80;99.90;;;;;;5034710;28;20057;-53
2023/01/11 05:19:02;;;;;;;6.75;5.68;;;0.80;99.90;;;;;;5034399;28;20089;-50
2023/01/11 05:21:33;;;;;;;8.70;5.53;;;0.90;99.90;;;;;;5033284;28;20018;-50
2023/01/11 05:24:00;;;;;;;11.93;6.28;;;0.90;99.90;;;;;;5034156;28;20026;-49
2023/01/11 05:26:35;;;;;;;9.95;5.60;;;0.90;99.90;;;;;;5034422;28;20411;-53
2023/01/11 05:29:07;;;;;;;7.85;5.32;;;0.90;99.90;;;;;;5034445;28;20026;-51
2023/01/11 05:31:34;;;;;;;12.00;5.47;;;0.90;99.90;;;;;;5034376;28;20018;-54
2023/01/11 05:34:00;;;;;;;7.25;4.75;;;0.90;99.90;;;;;;5032871;28;20030;-50
2023/01/11 05:36:28;;;;;;;8.63;4.85;;;1.00;99.90;;;;;;5034291;28;20579;-52
2023/01/11 05:38:55;;;;;;;7.43;4.70;;;1.00;99.90;;;;;;5034222;28;20025;-50
2023/01/11 05:41:22;;;;;;;4.90;4.40;;;1.10;99.90;;;;;;5034164;28;20044;-51
2023/01/11 05:46:35;;;;;;;8.43;4.63;;;1.20;99.90;;;;;;5033993;28;20111;-53
2023/01/11 05:49:02;;;;;;;7.18;5.25;;;1.20;99.90;;;;;;5033943;28;20018;-51
2023/01/11 05:51:31;;;;;;;5.95;4.88;;;1.30;99.90;;;;;;5034028;28;20021;-49
2023/01/11 05:53:58;;;;;;;31.23;17.55;;;1.30;99.90;;;;;;5033975;28;20105;-49
2023/01/11 05:56:25;;;;;;;9.65;6.90;;;1.30;99.90;;;;;;5033994;28;20037;-55
2023/01/11 05:58:51;;;;;;;14.13;7.03;;;1.20;99.90;;;;;;5033828;28;20029;-51
2023/01/11 06:01:18;;;;;;;6.07;4.57;;;1.10;99.90;;;;;;5033492;28;20508;-51
2023/01/11 06:03:45;;;;;;;7.90;4.57;;;1.20;99.90;;;;;;5033127;28;20025;-50
2023/01/11 06:06:11;;;;;;;9.93;5.20;;;1.30;99.90;;;;;;5033291;28;20059;-52
2023/01/11 06:08:37;;;;;;;9.98;6.80;;;1.20;99.90;;;;;;5033108;28;20021;-56
2023/01/11 06:11:03;;;;;;;16.58;8.30;;;1.20;99.90;;;;;;5032014;28;20078;-57
2023/01/11 06:13:28;;;;;;;14.52;7.65;;;1.30;99.90;;;;;;5032776;28;20033;-55
2023/01/11 06:16:01;;;;;;;6.18;5.30;;;1.20;99.90;;;;;;5032639;28;20582;-53
2023/01/11 06:18:28;;;;;;;7.50;5.45;;;1.30;99.90;;;;;;5032820;28;20037;-53
2023/01/11 06:20:55;;;;;;;13.88;4.50;;;1.20;99.90;;;;;;5029039;28;20440;-54
2023/01/11 06:23:22;;;;;;;8.65;4.78;;;1.20;99.90;;;;;;5032207;28;20030;-51
2023/01/11 06:25:48;;;;;;;6.97;4.30;;;1.30;99.90;;;;;;5032953;28;20380;-51
2023/01/11 06:28:14;;;;;;;5.07;4.20;;;1.40;99.90;;;;;;5033204;28;20029;-51
2023/01/11 06:30:40;;;;;;;10.35;3.80;;;1.40;99.90;;;;;;5032753;28;20783;-52
2023/01/11 06:33:06;;;;;;;12.13;5.15;;;1.40;99.90;;;;;;5033129;28;20010;-52
2023/01/11 06:35:38;;;;;;;16.80;5.72;;;1.50;99.90;;;;;;5032364;28;20027;-52
2023/01/11 06:38:09;;;;;;;12.02;6.10;;;1.50;99.90;;;;;;5033115;28;20021;-52
2023/01/11 06:40:36;;;;;;;5.85;4.03;;;1.60;99.90;;;;;;5032708;28;20087;-52
2023/01/11 06:43:03;;;;;;;8.05;4.38;;;1.50;99.90;;;;;;5032889;28;20041;-52
2023/01/11 06:45:29;;;;;;;8.35;4.97;;;1.50;99.90;;;;;;5031216;28;20449;-51
2023/01/11 06:47:55;;;;;;;8.02;4.47;;;1.50;99.90;;;;;;5032823;28;20021;-49
2023/01/11 06:50:21;;;;;;;11.13;5.40;;;1.50;99.90;;;;;;5032718;28;20121;-49
2023/01/11 06:52:58;;;;;;;12.13;6.03;;;1.50;99.90;;;;;;5032590;28;20021;-51
2023/01/11 06:55:25;;;;;;;7.10;5.40;;;1.50;99.90;;;;;;5031375;28;20573;-52
2023/01/11 06:57:51;;;;;;;12.23;5.25;;;1.50;99.90;;;;;;5032354;28;20116;-52
2023/01/11 07:00:18;;;;;;;7.68;5.72;;;1.50;99.90;;;;;;5033861;28;20075;-53
2023/01/11 07:02:44;;;;;;;8.25;5.05;;;1.60;99.90;;;;;;5032848;28;20314;-53
2023/01/11 07:05:10;;;;;;;10.77;5.50;;;1.60;99.90;;;;;;5032914;28;20021;-52
2023/01/11 07:07:37;;;;;;;8.73;5.85;;;1.60;99.90;;;;;;5032560;28;20059;-53
2023/01/11 07:10:06;;;;;;;9.32;5.55;;;1.60;99.90;;;;;;5032786;28;20021;-50
2023/01/11 07:12:32;;;;;;;10.10;6.30;;;1.60;99.90;;;;;;5033237;28;20053;-55
2023/01/11 07:14:58;;;;;;;29.38;13.35;;;1.70;99.90;;;;;;5032266;28;20017;-55
2023/01/11 07:17:24;;;;;;;33.10;14.90;;;1.70;99.90;;;;;;5032389;28;20040;-52
2023/01/11 07:19:49;;;;;;;16.77;7.82;;;1.70;99.90;;;;;;5032568;28;20029;-51
2023/01/11 07:22:15;;;;;;;280.42;105.18;;;1.70;99.90;;;;;;5031483;28;20030;-57
2023/01/11 07:24:40;;;;;;;51.92;29.40;;;1.70;99.90;;;;;;5031824;28;20033;-55
2023/01/11 07:27:06;;;;;;;12.50;6.93;;;1.70;99.90;;;;;;5032076;28;20025;-51
2023/01/11 07:29:32;;;;;;;13.70;6.95;;;1.70;99.90;;;;;;5032062;28;20032;-54
2023/01/11 07:31:57;;;;;;;12.25;5.78;;;1.80;99.90;;;;;;5031673;28;20163;-54
2023/01/11 07:34:23;;;;;;;15.38;7.57;;;1.80;99.90;;;;;;5032071;28;20026;-52
2023/01/11 07:36:49;;;;;;;11.10;4.60;;;1.90;99.90;;;;;;5031948;28;20034;-49
2023/01/11 07:39:18;;;;;;;53.80;21.48;;;2.00;99.90;;;;;;5032127;28;20121;-53
2023/01/11 07:44:27;;;;;;;15.68;9.43;;;2.10;99.90;;;;;;5031846;28;20044;-52
2023/01/11 07:46:53;;;;;;;9.07;7.07;;;2.10;99.90;;;;;;5031737;28;20026;-55
2023/01/11 07:49:18;;;;;;;10.00;6.35;;;2.20;99.90;;;;;;5031477;28;20369;-53
2023/01/11 07:51:44;;;;;;;8.85;7.40;;;2.20;99.90;;;;;;5031820;28;20065;-50
2023/01/11 07:54:10;;;;;;;10.88;8.20;;;2.10;99.90;;;;;;5031795;28;20053;-51
2023/01/11 07:56:35;;;;;;;14.30;9.05;;;2.10;99.90;;;;;;5031955;28;20033;-51
2023/01/11 07:59:01;;;;;;;38.35;21.80;;;2.10;99.90;;;;;;5031641;28;20372;-55
2023/01/11 08:01:27;;;;;;;25.90;16.20;;;2.10;99.90;;;;;;5031594;28;20033;-52
2023/01/11 08:03:52;;;;;;;31.45;20.30;;;2.10;99.90;;;;;;5029544;28;20044;-54
2023/01/11 08:06:18;;;;;;;33.92;19.88;;;2.20;99.90;;;;;;5030717;28;20615;-50
2023/01/11 08:08:44;;;;;;;59.45;29.98;;;2.20;99.90;;;;;;5031347;28;20112;-53
2023/01/11 08:16:38;;;;;;;62.58;29.77;;;2.40;99.90;;;;;;5031486;28;20086;-54
2023/01/11 08:19:04;;;;;;;27.35;16.33;;;2.50;99.90;;;;;;5031700;28;20112;-54
2023/01/11 08:21:30;;;;;;;23.17;13.45;;;2.60;99.90;;;;;;5031526;28;20033;-52
2023/01/11 08:23:57;;;;;;;5.88;4.50;;;2.70;99.90;;;;;;5031062;28;20602;-54
2023/01/11 08:26:24;;;;;;;5.65;4.05;;;2.70;99.90;;;;;;5031583;28;20453;-57
2023/01/11 08:28:50;;;;;;;10.38;6.18;;;2.80;99.90;;;;;;5031370;28;20025;-50
2023/01/11 08:31:15;;;;;;;16.77;9.80;;;2.90;99.90;;;;;;5030320;28;20090;-52
2023/01/11 08:33:41;;;;;;;20.20;12.88;;;3.00;99.90;;;;;;5031387;28;20029;-55
2023/01/11 08:36:09;;;;;;;40.78;21.80;;;3.00;99.90;;;;;;5031725;28;20103;-52
2023/01/11 08:38:35;;;;;;;31.10;17.35;;;3.00;99.90;;;;;;5031631;28;20115;-54
2023/01/11 08:41:02;;;;;;;27.48;17.23;;;3.10;99.90;;;;;;5031053;28;20090;-57
2023/01/11 08:43:30;;;;;;;18.92;11.60;;;3.20;99.90;;;;;;5031353;28;20029;-50
2023/01/11 08:45:56;;;;;;;14.45;10.60;;;3.20;99.90;;;;;;5031100;28;20033;-51
2023/01/11 08:48:22;;;;;;;22.48;12.32;;;3.20;99.90;;;;;;5031186;28;20033;-57
2023/01/11 08:50:48;;;;;;;24.10;15.65;;;3.30;99.90;;;;;;5031196;28;20038;-55
2023/01/11 08:53:14;;;;;;;17.02;9.35;;;3.40;99.90;;;;;;5031260;28;20657;-54
2023/01/11 08:55:43;;;;;;;29.80;15.43;;;3.40;99.90;;;;;;5031204;28;20030;-58
2023/01/11 08:58:09;;;;;;;83.75;49.38;;;3.40;99.90;;;;;;5032539;28;20119;-55
2023/01/11 09:00:34;;;;;;;55.67;34.42;;;3.30;99.90;;;;;;5034754;28;20105;-55
2023/01/11 09:03:00;;;;;;;54.45;27.88;;;3.40;99.90;;;;;;5034771;28;20026;-53
2023/01/11 09:05:26;;;;;;;21.38;12.20;;;3.50;99.90;;;;;;5034592;28;20109;-54
2023/01/11 09:07:55;;;;;;;20.23;11.95;;;3.60;99.90;;;;;;5034917;28;20025;-53
2023/01/11 09:10:21;;;;;;;16.48;7.80;;;3.60;99.90;;;;;;5034496;28;20369;-50
2023/01/11 09:12:46;;;;;;;20.85;6.80;;;3.80;99.90;;;;;;5033351;28;20021;-54
2023/01/11 09:15:12;;;;;;;23.25;10.18;;;3.90;99.90;;;;;;5034261;28;20028;-57
2023/01/11 09:17:38;;;;;;;17.95;11.50;;;4.00;99.90;;;;;;5034519;28;20014;-50
2023/01/11 09:20:04;;;;;;;22.60;12.27;;;4.20;99.90;;;;;;5034589;28;20045;-52
2023/01/11 09:22:29;;;;;;;27.55;18.50;;;4.20;99.90;;;;;;5034556;28;20495;-53
2023/01/11 09:24:57;;;;;;;100.05;52.47;;;4.40;99.90;;;;;;5034209;28;20030;-54
2023/01/11 09:27:23;;;;;;;42.40;21.73;;;4.50;99.90;;;;;;5034451;28;20072;-55
2023/01/11 09:29:49;;;;;;;21.90;13.52;;;4.70;99.90;;;;;;5034331;28;20632;-53
2023/01/11 09:32:15;;;;;;;28.13;14.30;;;4.90;99.90;;;;;;5032791;28;20028;-50
2023/01/11 09:34:41;;;;;;;17.27;11.18;;;5.10;99.90;;;;;;5034244;28;20120;-55
2023/01/11 09:37:07;;;;;;;15.20;9.25;;;5.20;99.90;;;;;;5034121;28;20079;-58
2023/01/11 09:39:33;;;;;;;5.82;4.88;;;5.40;99.90;;;;;;5033913;28;20021;-54
2023/01/11 09:42:06;;;;;;;20.10;14.57;;;5.40;99.90;;;;;;5034215;28;20044;-55
2023/01/11 09:44:39;;;;;;;24.73;17.25;;;5.40;99.90;;;;;;5033894;28;20034;-55
2023/01/11 09:47:37;;;;;;;20.55;13.95;;;5.50;99.90;;;;;;5034123;28;20376;-54
2023/01/11 09:50:11;;;;;;;10.52;6.18;;;5.40;99.90;;;;;;5033378;28;20246;-54
2023/01/11 09:52:41;;;;;;;18.95;14.27;;;5.60;99.90;;;;;;5033908;28;20022;-55
2023/01/11 09:55:21;;;;;;;17.90;12.43;;;5.60;99.90;;;;;;5033803;28;20021;-57
2023/01/11 09:57:50;;;;;;;15.23;13.80;;;5.50;99.90;;;;;;5033796;28;20084;-55
2023/01/11 10:00:35;;;;;;;16.83;13.13;;;5.30;99.90;;;;;;5033834;28;20032;-55
2023/01/11 10:03:28;;;;;;;9.90;5.28;;;5.30;99.90;;;;;;5033782;28;20038;-52
2023/01/11 10:06:18;;;;;;;17.27;9.25;;;5.40;99.90;;;;;;5033337;28;20033;-54
2023/01/11 10:09:04;;;;;;;11.50;7.85;;;5.30;99.90;;;;;;5032762;28;20022;-54
2023/01/11 10:11:40;;;;;;;6.60;4.07;;;5.40;99.90;;;;;;5033674;28;20021;-55
2023/01/11 10:14:12;;;;;;;7.75;3.22;;;5.40;99.90;;;;;;5033537;28;20064;-51
2023/01/11 10:16:59;;;;;;;5.47;4.97;;;5.20;99.90;;;;;;5033354;28;20026;-51
2023/01/11 10:19:44;;;;;;;4.85;2.80;;;5.20;99.90;;;;;;5033283;28;20026;-52
2023/01/11 10:22:14;;;;;;;6.93;3.22;;;5.10;99.90;;;;;;5033300;28;20111;-52
2023/01/11 10:24:47;;;;;;;4.07;3.30;;;5.20;99.90;;;;;;5032823;28;20023;-51
2023/01/11 10:27:30;;;;;;;7.00;2.80;;;5.20;99.90;;;;;;5033319;28;20033;-51
2023/01/11 10:30:21;;;;;;;7.60;3.47;;;5.20;99.90;;;;;;5032843;28;20104;-51
2023/01/11 10:33:13;;;;;;;5.95;4.53;;;5.20;99.90;;;;;;5033281;28;20083;-52
2023/01/11 10:36:40;;;;;;;4.13;3.72;;;5.30;99.90;;;;;;5032937;28;20101;-54
2023/01/11 10:39:26;;;;;;;8.45;4.75;;;5.30;99.90;;;;;;5027136;28;20366;-54
2023/01/11 10:42:01;;;;;;;4.28;3.88;;;5.40;99.90;;;;;;5032536;28;20030;-56
2023/01/11 10:44:36;;;;;;;6.28;5.03;;;5.40;99.90;;;;;;5031345;28;20125;-53
2023/01/11 10:47:06;;;;;;;5.95;4.10;;;5.50;99.90;;;;;;5032863;28;20040;-54
2023/01/11 10:50:04;;;;;;;6.45;4.30;;;5.60;99.90;;;;;;5032749;28;20025;-53
2023/01/11 10:52:43;;;;;;;9.57;5.00;;;5.60;99.90;;;;;;5032802;28;20350;-54
2023/01/11 10:55:15;;;;;;;12.27;7.95;;;5.60;99.90;;;;;;5032732;28;20040;-57
2023/01/11 10:57:54;;;;;;;14.07;7.00;;;5.70;99.90;;;;;;5032639;28;20045;-55
2023/01/11 11:00:34;;;;;;;19.92;12.20;;;5.80;99.90;;;;;;5032559;28;20426;-52
2023/01/11 11:03:34;;;;;;;18.15;10.77;;;5.80;99.90;;;;;;5032473;28;20059;-54
2023/01/11 11:06:03;;;;;;;19.23;11.15;;;5.90;99.90;;;;;;5032418;28;20032;-52
2023/01/11 11:08:38;;;;;;;17.48;9.52;;;5.90;99.90;;;;;;5032516;28;20592;-52
2023/01/11 11:11:35;;;;;;;11.32;6.45;;;6.10;99.90;;;;;;5032334;28;20022;-55
2023/01/11 11:14:10;;;;;;;11.50;6.22;;;6.10;99.90;;;;;;5021770;28;20041;-54
2023/01/11 11:16:56;;;;;;;12.98;8.52;;;6.00;99.90;;;;;;5031890;28;20596;-55
2023/01/11 11:19:27;;;;;;;16.50;9.27;;;6.20;99.90;;;;;;5032181;28;20045;-52
2023/01/11 11:21:53;;;;;;;33.55;14.75;;;6.30;99.90;;;;;;5001216;28;20034;-52
2023/01/11 11:24:51;;;;;;;40.33;25.48;;;6.30;99.90;;;;;;5001995;28;20461;-52
2023/01/11 11:27:23;;;;;;;9.05;4.75;;;6.40;99.90;;;;;;4999999;28;20045;-54
2023/01/11 11:29:52;;;;;;;7.28;4.78;;;6.40;99.90;;;;;;5001936;28;20030;-52
2023/01/11 11:32:23;;;;;;;90.57;46.90;;;6.40;99.90;;;;;;5002168;28;20022;-56
2023/01/11 11:34:50;;;;;;;72.93;38.08;;;6.40;99.90;;;;;;5001531;28;20033;-54
2023/01/11 11:37:32;;;;;;;42.17;23.50;;;6.40;99.90;;;;;;5001507;28;20040;-58
2023/01/11 11:39:58;;;;;;;58.90;30.85;;;6.50;99.90;;;;;;5002080;28;20037;-55
2023/01/11 11:42:24;;;;;;;21.63;10.77;;;6.50;99.90;;;;;;5001795;28;20022;-56
2023/01/11 11:45:08;;;;;;;6.30;4.25;;;6.60;99.90;;;;;;5001094;28;20042;-57
2023/01/11 11:47:35;;;;;;;9.63;5.82;;;6.60;99.90;;;;;;5021090;28;20029;-54
2023/01/11 11:50:19;;;;;;;5.88;4.25;;;6.80;99.90;;;;;;5018490;28;20030;-55
2023/01/11 11:52:50;;;;;;;16.10;10.00;;;6.80;99.90;;;;;;5034748;28;20485;-55
2023/01/11 11:55:25;;;;;;;18.33;10.32;;;6.80;99.90;;;;;;5035519;28;20064;-56
2023/01/11 11:57:52;;;;;;;19.02;9.63;;;6.80;99.90;;;;;;5001049;28;20030;-54
2023/01/11 12:00:33;;;;;;;19.90;11.38;;;7.00;99.90;;;;;;5001610;28;20124;-57
2023/01/11 12:03:15;;;;;;;13.57;9.07;;;7.00;99.90;;;;;;5020528;28;20037;-57
2023/01/11 12:05:53;;;;;;;14.20;8.70;;;7.00;99.90;;;;;;5020830;28;20029;-56
2023/01/11 12:08:20;;;;;;;9.18;6.47;;;7.10;99.90;;;;;;5026921;28;20032;-57
2023/01/11 12:10:56;;;;;;;13.75;8.52;;;7.00;99.90;;;;;;5031020;28;20028;-57
2023/01/11 12:13:27;;;;;;;14.93;8.57;;;7.00;99.90;;;;;;5031454;28;20026;-55
2023/01/11 12:15:59;;;;;;;8.15;5.40;;;7.10;99.90;;;;;;5030117;28;20022;-52
2023/01/11 12:18:41;;;;;;;11.52;6.57;;;7.20;99.90;;;;;;5031576;28;20361;-54
2023/01/11 12:21:21;;;;;;;11.15;8.05;;;7.20;99.90;;;;;;5031563;28;20021;-55
2023/01/11 12:23:50;;;;;;;9.27;5.88;;;7.30;99.90;;;;;;5031451;28;20037;-50
2023/01/11 12:26:20;;;;;;;5.72;4.95;;;7.30;99.90;;;;;;5030883;28;20033;-52
2023/01/11 12:29:01;;;;;;;8.75;4.60;;;7.30;99.90;;;;;;5031550;28;20702;-54
2023/01/11 12:32:10;;;;;;;7.53;4.53;;;7.40;99.90;;;;;;5031569;28;20384;-54
2023/01/11 12:34:51;;;;;;;8.50;4.90;;;7.60;99.90;;;;;;5035403;28;20036;-54
2023/01/11 12:37:38;;;;;;;5.45;4.43;;;7.60;99.90;;;;;;5034036;28;20477;-56
2023/01/11 12:40:18;;;;;;;10.43;3.97;;;7.60;99.90;;;;;;5035460;28;20030;-58
2023/01/11 12:43:14;;;;;;;5.15;4.35;;;7.60;99.90;;;;;;5035111;28;20017;-56
2023/01/11 12:46:01;;;;;;;3.75;3.35;;;7.50;99.90;;;;;;5035115;28;20063;-55
2023/01/11 12:48:42;;;;;;;5.35;4.53;;;7.50;99.90;;;;;;5033818;28;20108;-57
2023/01/11 12:51:31;;;;;;;6.03;4.50;;;7.60;99.90;;;;;;5034813;28;20017;-54
2023/01/11 12:54:30;;;;;;;6.00;4.60;;;7.60;99.90;;;;;;5034599;28;20099;-57
2023/01/11 12:57:02;;;;;;;21.77;11.10;;;7.60;99.90;;;;;;5034567;28;20040;-55
2023/01/11 12:59:49;;;;;;;6.97;4.95;;;7.50;99.90;;;;;;5034050;28;20025;-55
2023/01/11 13:02:27;;;;;;;10.65;5.45;;;7.50;99.90;;;;;;5034609;28;20053;-56
2023/01/11 13:05:08;;;;;;;8.50;6.53;;;7.50;99.90;;;;;;5034218;28;20477;-55
2023/01/11 13:07:36;;;;;;;14.25;8.52;;;7.60;99.90;;;;;;5033896;28;20103;-57
2023/01/11 13:10:37;;;;;;;9.13;6.50;;;7.60;99.90;;;;;;5033742;28;20022;-54
2023/01/11 13:13:14;;;;;;;5.55;4.60;;;7.70;99.90;;;;;;5033868;28;20018;-57
2023/01/11 13:16:09;;;;;;;5.70;5.00;;;7.80;99.90;;;;;;5034447;28;20028;-56
2023/01/11 13:19:01;;;;;;;6.85;4.30;;;7.90;99.90;;;;;;5034171;28;20024;-57
2023/01/11 13:21:34;;;;;;;4.68;3.95;;;7.90;99.90;;;;;;5034440;28;20017;-57
2023/01/11 13:24:27;;;;;;;4.90;3.97;;;7.90;99.90;;;;;;5034417;28;20048;-52
2023/01/11 13:27:03;;;;;;;9.25;4.18;;;7.80;99.90;;;;;;5020950;28;20034;-55
2023/01/11 13:29:32;;;;;;;4.68;3.40;;;7.70;99.90;;;;;;5022989;28;20032;-57
2023/01/11 13:32:02;;;;;;;4.07;3.65;;;7.90;99.90;;;;;;5024177;28;20026;-53
2023/01/11 13:34:37;;;;;;;18.98;7.53;;;8.10;99.90;;;;;;5027601;28;20025;-56
2023/01/11 13:37:18;;;;;;;5.22;3.65;;;8.00;99.90;;;;;;5034138;28;20029;-56